sensor_id;sensor_type;location;lat;lon;timestamp;P1;durP1;ratioP1;P2;durP2;ratioP2
17604;SDS011;8921;50.964;6.800;2023-07-24T00:01:48;6.80;;;3.07;;
17604;SDS011;8921;50.964;6.800;2023-07-24T00:04:17;5.47;;;2.33;;
17604;SDS011;8921;50.964;6.800;2023-07-24T00:06:45;6.63;;;2.30;;
17604;SDS011;8921;50.964;6.800;2023-07-24T00:09:13;12.33;;;3.10;;
17604;SDS011;8921;50.964;6.800;2023-07-24T00:11:42;10.07;;;4.00;;
17604;SDS011;8921;50.964;6.800;2023-07-24T00:14:10;13.60;;;3.90;;
17604;SDS011;8921;50.964;6.800;2023-07-24T00:16:38;9.03;;;3.53;;
17604;SDS011;8921;50.964;6.800;2023-07-24T00:19:06;13.30;;;3.70;;
17604;SDS011;8921;50.964;6.800;2023-07-24T00:21:35;5.77;;;2.80;;
17604;SDS011;8921;50.964;6.800;2023-07-24T00:24:03;10.50;;;3.77;;
17604;SDS011;8921;50.964;6.800;2023-07-24T00:26:31;8.03;;;3.70;;
17604;SDS011;8921;50.964;6.800;2023-07-24T00:29:00;14.90;;;4.00;;
17604;SDS011;8921;50.964;6.800;2023-07-24T00:31:28;12.17;;;4.13;;
17604;SDS011;8921;50.964;6.800;2023-07-24T00:33:56;20.67;;;4.97;;
17604;SDS011;8921;50.964;6.800;2023-07-24T00:36:24;9.50;;;3.60;;
17604;SDS011;8921;50.964;6.800;2023-07-24T00:38:53;8.87;;;3.73;;
17604;SDS011;8921;50.964;6.800;2023-07-24T00:41:21;10.00;;;4.30;;
17604;SDS011;8921;50.964;6.800;2023-07-24T00:43:49;12.03;;;4.50;;
17604;SDS011;8921;50.964;6.800;2023-07-24T00:46:18;13.67;;;4.87;;
17604;SDS011;8921;50.964;6.800;2023-07-24T00:48:46;11.30;;;4.10;;
17604;SDS011;8921;50.964;6.800;2023-07-24T00:51:14;7.53;;;3.83;;
17604;SDS011;8921;50.964;6.800;2023-07-24T00:53:42;10.13;;;5.27;;
17604;SDS011;8921;50.964;6.800;2023-07-24T00:56:11;9.93;;;4.83;;
17604;SDS011;8921;50.964;6.800;2023-07-24T00:58:39;7.90;;;4.60;;
17604;SDS011;8921;50.964;6.800;2023-07-24T01:01:07;11.80;;;6.50;;
17604;SDS011;8921;50.964;6.800;2023-07-24T01:03:36;13.47;;;5.63;;
17604;SDS011;8921;50.964;6.800;2023-07-24T01:06:04;10.50;;;5.10;;
17604;SDS011;8921;50.964;6.800;2023-07-24T01:08:32;14.57;;;4.87;;
17604;SDS011;8921;50.964;6.800;2023-07-24T01:11:03;8.50;;;4.53;;
17604;SDS011;8921;50.964;6.800;2023-07-24T01:13:30;13.07;;;4.30;;
17604;SDS011;8921;50.964;6.800;2023-07-24T01:16:09;11.83;;;4.70;;
17604;SDS011;8921;50.964;6.800;2023-07-24T01:18:37;12.20;;;4.60;;
17604;SDS011;8921;50.964;6.800;2023-07-24T01:21:06;15.10;;;5.40;;
17604;SDS011;8921;50.964;6.800;2023-07-24T01:26:23;13.20;;;4.87;;
17604;SDS011;8921;50.964;6.800;2023-07-24T01:28:51;11.27;;;5.53;;
17604;SDS011;8921;50.964;6.800;2023-07-24T01:31:19;16.43;;;4.50;;
17604;SDS011;8921;50.964;6.800;2023-07-24T01:33:48;9.93;;;4.20;;
17604;SDS011;8921;50.964;6.800;2023-07-24T01:36:16;10.23;;;4.80;;
17604;SDS011;8921;50.964;6.800;2023-07-24T01:38:44;13.30;;;5.23;;
17604;SDS011;8921;50.964;6.800;2023-07-24T01:41:13;10.93;;;5.80;;
17604;SDS011;8921;50.964;6.800;2023-07-24T01:43:41;13.07;;;4.80;;
17604;SDS011;8921;50.964;6.800;2023-07-24T01:46:09;7.70;;;3.83;;
17604;SDS011;8921;50.964;6.800;2023-07-24T01:48:37;12.10;;;4.70;;
17604;SDS011;8921;50.964;6.800;2023-07-24T01:51:06;13.27;;;4.80;;
17604;SDS011;8921;50.964;6.800;2023-07-24T01:53:34;10.10;;;4.53;;
17604;SDS011;8921;50.964;6.800;2023-07-24T01:56:02;15.50;;;5.80;;
17604;SDS011;8921;50.964;6.800;2023-07-24T01:58:30;16.23;;;5.33;;
17604;SDS011;8921;50.964;6.800;2023-07-24T02:00:59;21.73;;;5.83;;
17604;SDS011;8921;50.964;6.800;2023-07-24T02:03:27;12.90;;;5.40;;
17604;SDS011;8921;50.964;6.800;2023-07-24T02:05:55;13.20;;;5.27;;
17604;SDS011;8921;50.964;6.800;2023-07-24T02:08:24;16.93;;;5.07;;
17604;SDS011;8921;50.964;6.800;2023-07-24T02:10:52;20.43;;;5.90;;
17604;SDS011;8921;50.964;6.800;2023-07-24T02:13:20;15.37;;;5.60;;
17604;SDS011;8921;50.964;6.800;2023-07-24T02:15:48;15.10;;;4.37;;
17604;SDS011;8921;50.964;6.800;2023-07-24T02:18:17;10.97;;;4.87;;
17604;SDS011;8921;50.964;6.800;2023-07-24T02:20:48;10.80;;;5.93;;
17604;SDS011;8921;50.964;6.800;2023-07-24T02:23:16;17.23;;;5.90;;
17604;SDS011;8921;50.964;6.800;2023-07-24T02:25:44;14.80;;;6.07;;
17604;SDS011;8921;50.964;6.800;2023-07-24T02:28:12;10.47;;;4.63;;
17604;SDS011;8921;50.964;6.800;2023-07-24T02:30:41;8.37;;;5.03;;
17604;SDS011;8921;50.964;6.800;2023-07-24T02:33:09;8.80;;;4.43;;
17604;SDS011;8921;50.964;6.800;2023-07-24T02:35:40;10.33;;;4.93;;
17604;SDS011;8921;50.964;6.800;2023-07-24T02:38:08;10.17;;;5.37;;
17604;SDS011;8921;50.964;6.800;2023-07-24T02:40:36;9.90;;;4.50;;
17604;SDS011;8921;50.964;6.800;2023-07-24T02:43:05;8.67;;;4.50;;
17604;SDS011;8921;50.964;6.800;2023-07-24T02:45:34;9.20;;;4.87;;
17604;SDS011;8921;50.964;6.800;2023-07-24T02:48:01;8.13;;;5.03;;
17604;SDS011;8921;50.964;6.800;2023-07-24T02:50:30;18.60;;;11.13;;
17604;SDS011;8921;50.964;6.800;2023-07-24T02:52:58;12.80;;;4.20;;
17604;SDS011;8921;50.964;6.800;2023-07-24T02:55:26;9.10;;;4.50;;
17604;SDS011;8921;50.964;6.800;2023-07-24T02:57:54;9.57;;;4.83;;
17604;SDS011;8921;50.964;6.800;2023-07-24T03:00:23;8.87;;;5.07;;
17604;SDS011;8921;50.964;6.800;2023-07-24T03:02:52;11.10;;;4.67;;
17604;SDS011;8921;50.964;6.800;2023-07-24T03:05:19;10.17;;;4.63;;
17604;SDS011;8921;50.964;6.800;2023-07-24T03:07:47;8.27;;;4.90;;
17604;SDS011;8921;50.964;6.800;2023-07-24T03:10:16;8.27;;;5.27;;
17604;SDS011;8921;50.964;6.800;2023-07-24T03:12:44;11.77;;;5.13;;
17604;SDS011;8921;50.964;6.800;2023-07-24T03:15:12;8.80;;;4.40;;
17604;SDS011;8921;50.964;6.800;2023-07-24T03:17:40;10.40;;;4.77;;
17604;SDS011;8921;50.964;6.800;2023-07-24T03:20:09;10.50;;;4.53;;
17604;SDS011;8921;50.964;6.800;2023-07-24T03:22:40;14.67;;;5.30;;
17604;SDS011;8921;50.964;6.800;2023-07-24T03:25:08;10.00;;;5.13;;
17604;SDS011;8921;50.964;6.800;2023-07-24T03:27:36;10.47;;;4.30;;
17604;SDS011;8921;50.964;6.800;2023-07-24T03:30:05;11.00;;;4.43;;
17604;SDS011;8921;50.964;6.800;2023-07-24T03:32:35;10.03;;;4.70;;
17604;SDS011;8921;50.964;6.800;2023-07-24T03:35:02;10.47;;;4.70;;
17604;SDS011;8921;50.964;6.800;2023-07-24T03:37:30;10.60;;;4.03;;
17604;SDS011;8921;50.964;6.800;2023-07-24T03:39:58;10.70;;;5.10;;
17604;SDS011;8921;50.964;6.800;2023-07-24T03:42:27;9.13;;;5.20;;
17604;SDS011;8921;50.964;6.800;2023-07-24T03:44:55;13.70;;;5.03;;
17604;SDS011;8921;50.964;6.800;2023-07-24T03:47:23;10.87;;;5.80;;
17604;SDS011;8921;50.964;6.800;2023-07-24T03:49:51;14.77;;;6.27;;
17604;SDS011;8921;50.964;6.800;2023-07-24T03:52:19;12.83;;;5.53;;
17604;SDS011;8921;50.964;6.800;2023-07-24T03:54:48;11.00;;;5.73;;
17604;SDS011;8921;50.964;6.800;2023-07-24T03:57:16;12.20;;;8.27;;
17604;SDS011;8921;50.964;6.800;2023-07-24T03:59:44;10.00;;;5.30;;
17604;SDS011;8921;50.964;6.800;2023-07-24T04:02:12;15.33;;;6.37;;
17604;SDS011;8921;50.964;6.800;2023-07-24T04:04:41;8.47;;;4.63;;
17604;SDS011;8921;50.964;6.800;2023-07-24T04:07:09;11.40;;;4.47;;
17604;SDS011;8921;50.964;6.800;2023-07-24T04:09:37;9.70;;;4.53;;
17604;SDS011;8921;50.964;6.800;2023-07-24T04:12:06;10.47;;;4.63;;
17604;SDS011;8921;50.964;6.800;2023-07-24T04:14:34;7.93;;;3.87;;
17604;SDS011;8921;50.964;6.800;2023-07-24T04:17:02;11.43;;;4.40;;
17604;SDS011;8921;50.964;6.800;2023-07-24T04:19:31;9.83;;;5.97;;
17604;SDS011;8921;50.964;6.800;2023-07-24T04:21:59;8.10;;;4.63;;
17604;SDS011;8921;50.964;6.800;2023-07-24T04:24:27;9.57;;;4.00;;
17604;SDS011;8921;50.964;6.800;2023-07-24T04:26:55;8.03;;;4.43;;
17604;SDS011;8921;50.964;6.800;2023-07-24T04:29:24;10.00;;;4.77;;
17604;SDS011;8921;50.964;6.800;2023-07-24T04:31:52;8.07;;;4.93;;
17604;SDS011;8921;50.964;6.800;2023-07-24T04:34:20;9.87;;;4.33;;
17604;SDS011;8921;50.964;6.800;2023-07-24T04:36:48;10.47;;;5.53;;
17604;SDS011;8921;50.964;6.800;2023-07-24T04:39:17;11.33;;;5.47;;
17604;SDS011;8921;50.964;6.800;2023-07-24T04:41:45;9.80;;;4.40;;
17604;SDS011;8921;50.964;6.800;2023-07-24T04:44:13;8.30;;;4.53;;
17604;SDS011;8921;50.964;6.800;2023-07-24T04:46:41;13.00;;;4.43;;
17604;SDS011;8921;50.964;6.800;2023-07-24T04:49:10;9.80;;;5.87;;
17604;SDS011;8921;50.964;6.800;2023-07-24T04:51:38;10.90;;;5.50;;
17604;SDS011;8921;50.964;6.800;2023-07-24T04:54:06;9.10;;;5.00;;
17604;SDS011;8921;50.964;6.800;2023-07-24T04:56:34;19.83;;;13.53;;
17604;SDS011;8921;50.964;6.800;2023-07-24T04:59:03;20.37;;;12.83;;
17604;SDS011;8921;50.964;6.800;2023-07-24T05:01:31;19.20;;;9.87;;
17604;SDS011;8921;50.964;6.800;2023-07-24T05:03:59;11.37;;;6.50;;
17604;SDS011;8921;50.964;6.800;2023-07-24T05:06:28;9.77;;;5.33;;
17604;SDS011;8921;50.964;6.800;2023-07-24T05:08:56;8.40;;;5.00;;
17604;SDS011;8921;50.964;6.800;2023-07-24T05:11:24;10.67;;;5.10;;
17604;SDS011;8921;50.964;6.800;2023-07-24T05:13:52;9.20;;;4.87;;
17604;SDS011;8921;50.964;6.800;2023-07-24T05:16:21;10.40;;;4.63;;
17604;SDS011;8921;50.964;6.800;2023-07-24T05:18:49;9.40;;;5.30;;
17604;SDS011;8921;50.964;6.800;2023-07-24T05:21:17;9.43;;;5.07;;
17604;SDS011;8921;50.964;6.800;2023-07-24T05:23:45;9.73;;;5.67;;
17604;SDS011;8921;50.964;6.800;2023-07-24T05:26:14;8.07;;;5.00;;
17604;SDS011;8921;50.964;6.800;2023-07-24T05:28:42;9.33;;;5.30;;
17604;SDS011;8921;50.964;6.800;2023-07-24T05:31:10;7.50;;;4.33;;
17604;SDS011;8921;50.964;6.800;2023-07-24T05:33:38;8.47;;;4.37;;
17604;SDS011;8921;50.964;6.800;2023-07-24T05:36:07;8.33;;;4.53;;
17604;SDS011;8921;50.964;6.800;2023-07-24T05:38:35;8.10;;;4.30;;
17604;SDS011;8921;50.964;6.800;2023-07-24T05:41:03;9.17;;;3.60;;
17604;SDS011;8921;50.964;6.800;2023-07-24T05:43:32;7.57;;;4.00;;
17604;SDS011;8921;50.964;6.800;2023-07-24T05:46:00;10.53;;;4.40;;
17604;SDS011;8921;50.964;6.800;2023-07-24T05:48:29;8.77;;;4.47;;
17604;SDS011;8921;50.964;6.800;2023-07-24T05:50:57;7.47;;;4.17;;
17604;SDS011;8921;50.964;6.800;2023-07-24T05:53:25;6.93;;;4.07;;
17604;SDS011;8921;50.964;6.800;2023-07-24T05:55:57;8.60;;;4.27;;
17604;SDS011;8921;50.964;6.800;2023-07-24T05:58:24;11.70;;;3.50;;
17604;SDS011;8921;50.964;6.800;2023-07-24T06:00:53;8.13;;;4.20;;
17604;SDS011;8921;50.964;6.800;2023-07-24T06:03:21;9.47;;;3.60;;
17604;SDS011;8921;50.964;6.800;2023-07-24T06:05:52;8.30;;;4.27;;
17604;SDS011;8921;50.964;6.800;2023-07-24T06:08:20;9.67;;;3.47;;
17604;SDS011;8921;50.964;6.800;2023-07-24T06:10:49;7.97;;;4.20;;
17604;SDS011;8921;50.964;6.800;2023-07-24T06:13:17;9.03;;;3.70;;
17604;SDS011;8921;50.964;6.800;2023-07-24T06:15:48;10.23;;;4.40;;
17604;SDS011;8921;50.964;6.800;2023-07-24T06:18:16;8.80;;;3.27;;
17604;SDS011;8921;50.964;6.800;2023-07-24T06:20:44;8.33;;;3.53;;
17604;SDS011;8921;50.964;6.800;2023-07-24T06:23:13;8.03;;;3.50;;
17604;SDS011;8921;50.964;6.800;2023-07-24T06:25:41;10.67;;;4.07;;
17604;SDS011;8921;50.964;6.800;2023-07-24T06:28:09;8.17;;;3.80;;
17604;SDS011;8921;50.964;6.800;2023-07-24T06:30:38;8.93;;;3.53;;
17604;SDS011;8921;50.964;6.800;2023-07-24T06:33:06;5.87;;;3.00;;
17604;SDS011;8921;50.964;6.800;2023-07-24T06:35:34;7.37;;;3.43;;
17604;SDS011;8921;50.964;6.800;2023-07-24T06:38:02;6.00;;;3.17;;
17604;SDS011;8921;50.964;6.800;2023-07-24T06:40:30;9.00;;;4.60;;
17604;SDS011;8921;50.964;6.800;2023-07-24T06:42:59;6.00;;;2.83;;
17604;SDS011;8921;50.964;6.800;2023-07-24T06:45:27;7.93;;;3.47;;
17604;SDS011;8921;50.964;6.800;2023-07-24T06:47:55;7.47;;;3.63;;
17604;SDS011;8921;50.964;6.800;2023-07-24T06:50:24;7.87;;;3.50;;
17604;SDS011;8921;50.964;6.800;2023-07-24T06:52:52;6.17;;;3.40;;
17604;SDS011;8921;50.964;6.800;2023-07-24T06:55:20;6.70;;;3.03;;
17604;SDS011;8921;50.964;6.800;2023-07-24T06:57:48;7.70;;;3.30;;
17604;SDS011;8921;50.964;6.800;2023-07-24T07:00:17;8.87;;;3.93;;
17604;SDS011;8921;50.964;6.800;2023-07-24T07:02:45;7.83;;;3.60;;
17604;SDS011;8921;50.964;6.800;2023-07-24T07:05:13;6.50;;;3.00;;
17604;SDS011;8921;50.964;6.800;2023-07-24T07:07:41;6.40;;;2.80;;
17604;SDS011;8921;50.964;6.800;2023-07-24T07:10:10;7.27;;;2.70;;
17604;SDS011;8921;50.964;6.800;2023-07-24T07:12:38;6.00;;;3.10;;
17604;SDS011;8921;50.964;6.800;2023-07-24T07:15:07;5.70;;;2.77;;
17604;SDS011;8921;50.964;6.800;2023-07-24T07:17:35;7.73;;;2.93;;
17604;SDS011;8921;50.964;6.800;2023-07-24T07:20:03;7.17;;;3.63;;
17604;SDS011;8921;50.964;6.800;2023-07-24T07:22:32;6.20;;;2.80;;
17604;SDS011;8921;50.964;6.800;2023-07-24T07:25:00;6.70;;;3.00;;
17604;SDS011;8921;50.964;6.800;2023-07-24T07:27:28;7.43;;;3.60;;
17604;SDS011;8921;50.964;6.800;2023-07-24T07:29:57;7.50;;;2.73;;
17604;SDS011;8921;50.964;6.800;2023-07-24T07:32:25;6.37;;;3.10;;
17604;SDS011;8921;50.964;6.800;2023-07-24T07:34:53;6.50;;;3.43;;
17604;SDS011;8921;50.964;6.800;2023-07-24T07:37:21;6.83;;;3.33;;
17604;SDS011;8921;50.964;6.800;2023-07-24T07:39:50;6.10;;;3.23;;
17604;SDS011;8921;50.964;6.800;2023-07-24T07:42:18;6.07;;;3.17;;
17604;SDS011;8921;50.964;6.800;2023-07-24T07:44:46;6.40;;;3.30;;
17604;SDS011;8921;50.964;6.800;2023-07-24T07:47:14;10.30;;;3.60;;
17604;SDS011;8921;50.964;6.800;2023-07-24T07:49:43;6.30;;;3.20;;
17604;SDS011;8921;50.964;6.800;2023-07-24T07:52:11;9.90;;;3.43;;
17604;SDS011;8921;50.964;6.800;2023-07-24T07:54:39;6.67;;;2.77;;
17604;SDS011;8921;50.964;6.800;2023-07-24T07:57:08;7.50;;;3.63;;
17604;SDS011;8921;50.964;6.800;2023-07-24T07:59:36;7.67;;;3.10;;
17604;SDS011;8921;50.964;6.800;2023-07-24T08:02:04;8.70;;;3.03;;
17604;SDS011;8921;50.964;6.800;2023-07-24T08:04:32;7.83;;;3.50;;
17604;SDS011;8921;50.964;6.800;2023-07-24T08:07:01;8.60;;;3.70;;
17604;SDS011;8921;50.964;6.800;2023-07-24T08:09:29;7.80;;;4.20;;
17604;SDS011;8921;50.964;6.800;2023-07-24T08:11:57;9.27;;;3.83;;
17604;SDS011;8921;50.964;6.800;2023-07-24T08:14:25;7.30;;;3.20;;
17604;SDS011;8921;50.964;6.800;2023-07-24T08:16:54;7.53;;;3.60;;
17604;SDS011;8921;50.964;6.800;2023-07-24T08:19:22;9.30;;;3.63;;
17604;SDS011;8921;50.964;6.800;2023-07-24T08:21:50;6.73;;;3.30;;
17604;SDS011;8921;50.964;6.800;2023-07-24T08:24:18;7.00;;;3.23;;
17604;SDS011;8921;50.964;6.800;2023-07-24T08:26:47;6.77;;;2.80;;
17604;SDS011;8921;50.964;6.800;2023-07-24T08:29:15;7.00;;;3.67;;
17604;SDS011;8921;50.964;6.800;2023-07-24T08:31:43;9.30;;;3.63;;
17604;SDS011;8921;50.964;6.800;2023-07-24T08:34:12;6.70;;;3.60;;
17604;SDS011;8921;50.964;6.800;2023-07-24T08:36:40;8.50;;;3.37;;
17604;SDS011;8921;50.964;6.800;2023-07-24T08:39:08;7.90;;;3.70;;
17604;SDS011;8921;50.964;6.800;2023-07-24T08:41:37;9.13;;;3.53;;
17604;SDS011;8921;50.964;6.800;2023-07-24T08:44:07;8.23;;;3.33;;
17604;SDS011;8921;50.964;6.800;2023-07-24T08:46:36;7.00;;;3.37;;
17604;SDS011;8921;50.964;6.800;2023-07-24T08:49:04;7.00;;;3.50;;
17604;SDS011;8921;50.964;6.800;2023-07-24T08:51:32;12.03;;;5.70;;
17604;SDS011;8921;50.964;6.800;2023-07-24T08:54:01;12.60;;;3.80;;
17604;SDS011;8921;50.964;6.800;2023-07-24T08:56:29;7.30;;;3.40;;
17604;SDS011;8921;50.964;6.800;2023-07-24T08:58:57;5.73;;;2.90;;
17604;SDS011;8921;50.964;6.800;2023-07-24T09:01:25;6.90;;;2.93;;
17604;SDS011;8921;50.964;6.800;2023-07-24T09:03:54;5.60;;;2.70;;
17604;SDS011;8921;50.964;6.800;2023-07-24T09:06:22;7.60;;;2.83;;
17604;SDS011;8921;50.964;6.800;2023-07-24T09:08:53;7.07;;;3.63;;
17604;SDS011;8921;50.964;6.800;2023-07-24T09:11:18;12.80;;;3.30;;
17604;SDS011;8921;50.964;6.800;2023-07-24T09:13:47;8.43;;;3.60;;
17604;SDS011;8921;50.964;6.800;2023-07-24T09:16:24;6.10;;;2.70;;
17604;SDS011;8921;50.964;6.800;2023-07-24T09:18:49;11.70;;;3.40;;
17604;SDS011;8921;50.964;6.800;2023-07-24T09:21:27;6.30;;;3.03;;
17604;SDS011;8921;50.964;6.800;2023-07-24T09:24:08;7.90;;;2.90;;
17604;SDS011;8921;50.964;6.800;2023-07-24T09:26:26;6.07;;;2.87;;
17604;SDS011;8921;50.964;6.800;2023-07-24T09:28:54;8.83;;;3.20;;
17604;SDS011;8921;50.964;6.800;2023-07-24T09:31:33;7.30;;;2.80;;
17604;SDS011;8921;50.964;6.800;2023-07-24T09:33:51;6.93;;;2.47;;
17604;SDS011;8921;50.964;6.800;2023-07-24T09:36:19;6.50;;;2.73;;
17604;SDS011;8921;50.964;6.800;2023-07-24T09:38:47;7.20;;;2.73;;
17604;SDS011;8921;50.964;6.800;2023-07-24T09:41:26;5.90;;;2.60;;
17604;SDS011;8921;50.964;6.800;2023-07-24T09:43:44;5.10;;;2.27;;
17604;SDS011;8921;50.964;6.800;2023-07-24T09:46:12;7.53;;;2.80;;
17604;SDS011;8921;50.964;6.800;2023-07-24T09:48:41;7.10;;;2.60;;
17604;SDS011;8921;50.964;6.800;2023-07-24T09:51:10;5.87;;;2.80;;
17604;SDS011;8921;50.964;6.800;2023-07-24T09:53:47;7.50;;;2.97;;
17604;SDS011;8921;50.964;6.800;2023-07-24T09:56:11;6.50;;;2.67;;
17604;SDS011;8921;50.964;6.800;2023-07-24T09:58:40;6.00;;;2.63;;
17604;SDS011;8921;50.964;6.800;2023-07-24T10:01:09;5.60;;;2.10;;
17604;SDS011;8921;50.964;6.800;2023-07-24T10:03:40;5.90;;;2.70;;
17604;SDS011;8921;50.964;6.800;2023-07-24T10:06:08;12.70;;;3.17;;
17604;SDS011;8921;50.964;6.800;2023-07-24T10:08:35;5.90;;;2.37;;
17604;SDS011;8921;50.964;6.800;2023-07-24T10:11:03;6.90;;;2.53;;
17604;SDS011;8921;50.964;6.800;2023-07-24T10:13:31;5.50;;;2.90;;
17604;SDS011;8921;50.964;6.800;2023-07-24T10:16:00;5.03;;;2.10;;
17604;SDS011;8921;50.964;6.800;2023-07-24T10:18:28;4.77;;;2.10;;
17604;SDS011;8921;50.964;6.800;2023-07-24T10:21:00;8.43;;;2.83;;
17604;SDS011;8921;50.964;6.800;2023-07-24T10:23:37;5.40;;;2.70;;
17604;SDS011;8921;50.964;6.800;2023-07-24T10:26:02;5.27;;;2.37;;
17604;SDS011;8921;50.964;6.800;2023-07-24T10:28:30;5.27;;;2.67;;
17604;SDS011;8921;50.964;6.800;2023-07-24T10:30:58;5.97;;;2.83;;
17604;SDS011;8921;50.964;6.800;2023-07-24T10:33:29;6.60;;;3.03;;
17604;SDS011;8921;50.964;6.800;2023-07-24T10:36:03;5.73;;;2.87;;
17604;SDS011;8921;50.964;6.800;2023-07-24T10:38:32;6.57;;;2.83;;
17604;SDS011;8921;50.964;6.800;2023-07-24T10:41:00;7.13;;;3.20;;
17604;SDS011;8921;50.964;6.800;2023-07-24T10:43:19;5.50;;;2.10;;
17604;SDS011;8921;50.964;6.800;2023-07-24T10:45:49;7.90;;;2.97;;
17604;SDS011;8921;50.964;6.800;2023-07-24T10:48:23;7.00;;;2.60;;
17604;SDS011;8921;50.964;6.800;2023-07-24T10:50:50;7.27;;;2.97;;
17604;SDS011;8921;50.964;6.800;2023-07-24T10:53:19;7.80;;;2.37;;
17604;SDS011;8921;50.964;6.800;2023-07-24T10:55:47;5.67;;;2.53;;
17604;SDS011;8921;50.964;6.800;2023-07-24T10:58:14;6.17;;;2.70;;
17604;SDS011;8921;50.964;6.800;2023-07-24T11:00:43;7.37;;;2.80;;
17604;SDS011;8921;50.964;6.800;2023-07-24T11:03:11;5.60;;;2.50;;
17604;SDS011;8921;50.964;6.800;2023-07-24T11:05:42;7.30;;;3.10;;
17604;SDS011;8921;50.964;6.800;2023-07-24T11:08:11;6.10;;;3.10;;
17604;SDS011;8921;50.964;6.800;2023-07-24T11:10:45;7.90;;;4.20;;
17604;SDS011;8921;50.964;6.800;2023-07-24T11:13:19;8.33;;;4.10;;
17604;SDS011;8921;50.964;6.800;2023-07-24T11:15:47;6.20;;;3.10;;
17604;SDS011;8921;50.964;6.800;2023-07-24T11:18:14;6.00;;;2.90;;
17604;SDS011;8921;50.964;6.800;2023-07-24T11:20:43;5.90;;;2.60;;
17604;SDS011;8921;50.964;6.800;2023-07-24T11:23:11;6.60;;;2.97;;
17604;SDS011;8921;50.964;6.800;2023-07-24T11:25:39;6.73;;;2.97;;
17604;SDS011;8921;50.964;6.800;2023-07-24T11:28:08;7.07;;;3.20;;
17604;SDS011;8921;50.964;6.800;2023-07-24T11:30:36;6.57;;;2.70;;
17604;SDS011;8921;50.964;6.800;2023-07-24T11:33:07;7.90;;;3.17;;
17604;SDS011;8921;50.964;6.800;2023-07-24T11:35:35;16.50;;;4.90;;
17604;SDS011;8921;50.964;6.800;2023-07-24T11:38:03;13.90;;;5.10;;
17604;SDS011;8921;50.964;6.800;2023-07-24T11:40:32;9.03;;;4.03;;
17604;SDS011;8921;50.964;6.800;2023-07-24T11:42:59;6.50;;;2.47;;
17604;SDS011;8921;50.964;6.800;2023-07-24T11:45:28;7.70;;;2.23;;
17604;SDS011;8921;50.964;6.800;2023-07-24T11:47:56;11.07;;;2.90;;
17604;SDS011;8921;50.964;6.800;2023-07-24T11:50:24;12.00;;;2.20;;
17604;SDS011;8921;50.964;6.800;2023-07-24T11:52:52;25.53;;;3.10;;
17604;SDS011;8921;50.964;6.800;2023-07-24T11:55:30;4.97;;;2.00;;
17604;SDS011;8921;50.964;6.800;2023-07-24T11:57:59;5.30;;;1.90;;
17604;SDS011;8921;50.964;6.800;2023-07-24T12:00:26;4.73;;;2.03;;
17604;SDS011;8921;50.964;6.800;2023-07-24T12:03:00;6.47;;;1.90;;
17604;SDS011;8921;50.964;6.800;2023-07-24T12:05:28;5.27;;;2.30;;
17604;SDS011;8921;50.964;6.800;2023-07-24T12:07:57;7.83;;;2.37;;
17604;SDS011;8921;50.964;6.800;2023-07-24T12:10:26;5.80;;;2.00;;
17604;SDS011;8921;50.964;6.800;2023-07-24T12:12:58;5.07;;;2.13;;
17604;SDS011;8921;50.964;6.800;2023-07-24T12:15:24;5.07;;;1.90;;
17604;SDS011;8921;50.964;6.800;2023-07-24T12:17:53;8.60;;;2.43;;
17604;SDS011;8921;50.964;6.800;2023-07-24T12:20:21;5.77;;;2.00;;
17604;SDS011;8921;50.964;6.800;2023-07-24T12:22:49;5.23;;;1.90;;
17604;SDS011;8921;50.964;6.800;2023-07-24T12:25:17;5.00;;;1.93;;
17604;SDS011;8921;50.964;6.800;2023-07-24T12:27:46;5.77;;;2.20;;
17604;SDS011;8921;50.964;6.800;2023-07-24T12:30:14;5.17;;;2.27;;
17604;SDS011;8921;50.964;6.800;2023-07-24T12:32:42;5.80;;;2.13;;
17604;SDS011;8921;50.964;6.800;2023-07-24T12:35:10;8.37;;;2.90;;
17604;SDS011;8921;50.964;6.800;2023-07-24T12:37:39;5.27;;;2.23;;
17604;SDS011;8921;50.964;6.800;2023-07-24T12:40:07;7.73;;;2.50;;
17604;SDS011;8921;50.964;6.800;2023-07-24T12:42:36;6.93;;;2.13;;
17604;SDS011;8921;50.964;6.800;2023-07-24T12:45:04;5.83;;;2.60;;
17604;SDS011;8921;50.964;6.800;2023-07-24T12:47:32;4.80;;;1.90;;
17604;SDS011;8921;50.964;6.800;2023-07-24T12:50:01;5.90;;;1.80;;
17604;SDS011;8921;50.964;6.800;2023-07-24T12:52:29;4.70;;;1.63;;
17604;SDS011;8921;50.964;6.800;2023-07-24T12:54:57;5.13;;;1.90;;
17604;SDS011;8921;50.964;6.800;2023-07-24T12:57:25;4.60;;;1.70;;
17604;SDS011;8921;50.964;6.800;2023-07-24T12:59:54;4.57;;;1.90;;
17604;SDS011;8921;50.964;6.800;2023-07-24T13:02:22;5.40;;;2.17;;
17604;SDS011;8921;50.964;6.800;2023-07-24T13:04:50;7.07;;;1.83;;
17604;SDS011;8921;50.964;6.800;2023-07-24T13:07:18;5.57;;;2.00;;
17604;SDS011;8921;50.964;6.800;2023-07-24T13:09:47;4.80;;;1.70;;
17604;SDS011;8921;50.964;6.800;2023-07-24T13:12:15;7.10;;;1.90;;
17604;SDS011;8921;50.964;6.800;2023-07-24T13:14:43;5.00;;;2.03;;
17604;SDS011;8921;50.964;6.800;2023-07-24T13:17:12;4.70;;;1.97;;
17604;SDS011;8921;50.964;6.800;2023-07-24T13:19:40;5.17;;;1.97;;
17604;SDS011;8921;50.964;6.800;2023-07-24T13:22:08;4.67;;;1.80;;
17604;SDS011;8921;50.964;6.800;2023-07-24T13:24:36;5.40;;;1.90;;
17604;SDS011;8921;50.964;6.800;2023-07-24T13:27:05;5.77;;;1.83;;
17604;SDS011;8921;50.964;6.800;2023-07-24T13:29:33;7.10;;;2.40;;
17604;SDS011;8921;50.964;6.800;2023-07-24T13:32:01;6.07;;;2.00;;
17604;SDS011;8921;50.964;6.800;2023-07-24T13:34:30;4.70;;;1.70;;
17604;SDS011;8921;50.964;6.800;2023-07-24T13:36:58;5.47;;;2.07;;
17604;SDS011;8921;50.964;6.800;2023-07-24T13:39:26;4.80;;;1.87;;
17604;SDS011;8921;50.964;6.800;2023-07-24T13:41:54;7.80;;;1.63;;
17604;SDS011;8921;50.964;6.800;2023-07-24T13:44:23;4.73;;;1.83;;
17604;SDS011;8921;50.964;6.800;2023-07-24T13:46:51;4.73;;;1.50;;
17604;SDS011;8921;50.964;6.800;2023-07-24T13:49:19;5.70;;;1.77;;
17604;SDS011;8921;50.964;6.800;2023-07-24T13:51:47;5.13;;;1.83;;
17604;SDS011;8921;50.964;6.800;2023-07-24T13:54:16;5.27;;;1.80;;
17604;SDS011;8921;50.964;6.800;2023-07-24T13:56:44;5.20;;;1.70;;
17604;SDS011;8921;50.964;6.800;2023-07-24T13:59:12;5.70;;;1.70;;
17604;SDS011;8921;50.964;6.800;2023-07-24T14:01:41;5.17;;;1.53;;
17604;SDS011;8921;50.964;6.800;2023-07-24T14:04:09;4.90;;;1.70;;
17604;SDS011;8921;50.964;6.800;2023-07-24T14:06:37;4.57;;;1.60;;
17604;SDS011;8921;50.964;6.800;2023-07-24T14:09:05;5.07;;;1.50;;
17604;SDS011;8921;50.964;6.800;2023-07-24T14:11:34;4.47;;;1.40;;
17604;SDS011;8921;50.964;6.800;2023-07-24T14:14:02;5.27;;;1.77;;
17604;SDS011;8921;50.964;6.800;2023-07-24T14:16:30;4.10;;;1.27;;
17604;SDS011;8921;50.964;6.800;2023-07-24T14:18:58;4.10;;;1.40;;
17604;SDS011;8921;50.964;6.800;2023-07-24T14:21:27;3.90;;;1.47;;
17604;SDS011;8921;50.964;6.800;2023-07-24T14:23:55;4.43;;;1.50;;
17604;SDS011;8921;50.964;6.800;2023-07-24T14:26:23;5.90;;;1.70;;
17604;SDS011;8921;50.964;6.800;2023-07-24T14:28:51;3.87;;;1.30;;
17604;SDS011;8921;50.964;6.800;2023-07-24T14:31:20;4.50;;;1.30;;
17604;SDS011;8921;50.964;6.800;2023-07-24T14:33:48;5.83;;;1.50;;
17604;SDS011;8921;50.964;6.800;2023-07-24T14:36:16;4.00;;;1.33;;
17604;SDS011;8921;50.964;6.800;2023-07-24T14:38:44;5.40;;;1.50;;
17604;SDS011;8921;50.964;6.800;2023-07-24T14:41:13;4.53;;;1.50;;
17604;SDS011;8921;50.964;6.800;2023-07-24T14:43:41;4.30;;;1.40;;
17604;SDS011;8921;50.964;6.800;2023-07-24T14:46:09;4.50;;;1.77;;
17604;SDS011;8921;50.964;6.800;2023-07-24T14:48:37;4.20;;;1.37;;
17604;SDS011;8921;50.964;6.800;2023-07-24T14:51:06;5.93;;;1.50;;
17604;SDS011;8921;50.964;6.800;2023-07-24T14:53:34;5.50;;;1.67;;
17604;SDS011;8921;50.964;6.800;2023-07-24T14:56:05;6.30;;;1.93;;
17604;SDS011;8921;50.964;6.800;2023-07-24T14:58:33;5.00;;;1.77;;
17604;SDS011;8921;50.964;6.800;2023-07-24T15:01:02;4.63;;;1.90;;
17604;SDS011;8921;50.964;6.800;2023-07-24T15:03:30;4.17;;;1.50;;
17604;SDS011;8921;50.964;6.800;2023-07-24T15:05:58;4.40;;;1.70;;
17604;SDS011;8921;50.964;6.800;2023-07-24T15:08:26;4.70;;;1.83;;